Terminal Aerodrome Forecast
Issued by NWS

Home | Current Version | Previous Version | Text Only | Print | Product List | Glossary Off
Versions: 1 2 3 4 5 6 7 8 9 10 11 12 13 14

000
FTUS43 KICT 231122
TAFHUT
TAF
KHUT 231122Z 2312/2412 36015G22KT P6SM OVC020
      TEMPO 2313/2315 SCT020 BKN110
     FM231500 01016G23KT P6SM VCSH SCT030 BKN100
     FM231800 02017G25KT P6SM SCT120
     FM240000 01009KT P6SM SCT200
     FM240300 36005KT P6SM SKC=

USA.gov is the U.S. government's official web portal to all federal, state and local government web resources and services.